createdAt,value
2023-04-19T00:01:34.938Z,11.35
2023-04-19T00:04:05.197Z,11.31
2023-04-19T00:06:36.220Z,11.23
2023-04-19T00:09:08.711Z,11.42
2023-04-19T00:11:45.217Z,11.10
2023-04-19T00:14:14.974Z,11.23
2023-04-19T00:16:51.946Z,11.04
2023-04-19T00:19:20.311Z,11.19
2023-04-19T00:21:48.280Z,11.15
2023-04-19T00:24:19.624Z,11.21
2023-04-19T00:26:47.643Z,11.01
2023-04-19T00:29:17.328Z,11.19
2023-04-19T00:31:46.578Z,11.13
2023-04-19T00:34:14.984Z,11.12
2023-04-19T00:36:46.249Z,11.25
2023-04-19T00:39:15.556Z,11.34
2023-04-19T00:41:46.230Z,11.25
2023-04-19T00:44:17.838Z,11.35
2023-04-19T00:46:48.645Z,10.93
2023-04-19T00:49:18.834Z,11.40
2023-04-19T00:51:52.162Z,11.38
2023-04-19T00:54:23.755Z,11.54
2023-04-19T00:56:54.650Z,11.06
2023-04-19T00:59:26.115Z,11.36
2023-04-19T01:01:55.669Z,11.00
2023-04-19T01:04:24.582Z,11.21
2023-04-19T01:06:54.423Z,10.99
2023-04-19T01:09:22.534Z,11.09
2023-04-19T01:11:54.589Z,11.04
2023-04-19T01:14:25.216Z,11.24
2023-04-19T01:16:54.820Z,11.26
2023-04-19T01:19:38.414Z,11.10
2023-04-19T01:22:06.582Z,11.23
2023-04-19T01:24:35.977Z,11.16
2023-04-19T01:27:04.279Z,11.35
2023-04-19T01:29:37.134Z,11.26
2023-04-19T01:32:08.159Z,10.99
2023-04-19T01:34:42.786Z,11.28
2023-04-19T01:37:11.979Z,11.21
2023-04-19T01:39:42.906Z,11.09
2023-04-19T01:42:11.293Z,10.96
2023-04-19T01:44:39.548Z,10.94
2023-04-19T01:47:07.993Z,10.87
2023-04-19T01:49:36.118Z,10.90
2023-04-19T01:52:04.566Z,10.43
2023-04-19T01:54:35.706Z,10.62
2023-04-19T01:57:05.793Z,10.86
2023-04-19T01:59:37.755Z,10.83
2023-04-19T02:02:10.780Z,10.61
2023-04-19T02:04:39.012Z,10.38
2023-04-19T02:07:07.988Z,10.45
2023-04-19T02:09:41.648Z,10.22
2023-04-19T02:12:11.334Z,9.82
2023-04-19T02:14:40.205Z,10.35
2023-04-19T02:17:08.190Z,10.24
2023-04-19T02:19:36.293Z,7.88
2023-04-19T02:22:04.064Z,10.10
2023-04-19T02:24:31.896Z,10.25
2023-04-19T02:27:00.892Z,10.43
2023-04-19T02:29:32.858Z,10.27
2023-04-19T02:32:02.105Z,10.34
2023-04-19T02:34:34.252Z,10.27
2023-04-19T02:37:03.463Z,9.77
2023-04-19T02:39:34.664Z,9.72
2023-04-19T02:42:05.720Z,10.23
2023-04-19T02:44:35.752Z,10.09
2023-04-19T02:47:09.943Z,8.55
2023-04-19T02:49:43.971Z,9.98
2023-04-19T02:52:11.997Z,10.45
2023-04-19T02:54:40.643Z,10.48
2023-04-19T02:57:08.954Z,10.37
2023-04-19T02:59:40.009Z,10.48
2023-04-19T03:02:13.982Z,10.55
2023-04-19T03:04:47.009Z,10.46
2023-04-19T03:07:15.784Z,10.71
2023-04-19T03:09:43.952Z,10.64
2023-04-19T03:12:13.460Z,10.50
2023-04-19T03:14:51.474Z,10.42
2023-04-19T03:17:22.841Z,10.47
2023-04-19T03:19:51.514Z,10.37
2023-04-19T03:22:19.791Z,10.20
2023-04-19T03:24:49.801Z,10.39
2023-04-19T03:27:17.680Z,9.89
2023-04-19T03:29:49.010Z,10.43
2023-04-19T03:32:17.488Z,10.40
2023-04-19T03:34:45.719Z,10.47
2023-04-19T03:37:14.498Z,10.50
2023-04-19T03:39:42.594Z,9.73
2023-04-19T03:42:10.698Z,8.99
2023-04-19T03:44:38.668Z,10.58
2023-04-19T03:47:10.722Z,10.55
2023-04-19T03:49:38.502Z,10.60
2023-04-19T03:52:06.321Z,10.68
2023-04-19T03:54:37.214Z,10.75
2023-04-19T03:57:07.463Z,10.64
2023-04-19T03:59:49.521Z,10.38
2023-04-19T04:02:20.496Z,10.70
2023-04-19T04:04:54.900Z,10.56
2023-04-19T04:07:24.562Z,10.62
2023-04-19T04:09:52.895Z,10.69
2023-04-19T04:12:21.049Z,10.68
2023-04-19T04:14:54.521Z,9.08
2023-04-19T04:17:25.037Z,10.65
2023-04-19T04:19:53.529Z,10.51
2023-04-19T04:22:27.626Z,10.60
2023-04-19T04:24:58.633Z,10.68
2023-04-19T04:27:28.718Z,10.68
2023-04-19T04:29:56.880Z,10.82
2023-04-19T04:32:26.889Z,10.84
2023-04-19T04:34:54.819Z,10.97
2023-04-19T04:37:23.158Z,11.05
2023-04-19T04:39:53.461Z,10.98
2023-04-19T04:42:21.597Z,10.92
2023-04-19T04:44:52.260Z,10.99
2023-04-19T04:47:20.180Z,11.12
2023-04-19T04:49:52.684Z,11.14
2023-04-19T04:52:20.534Z,11.35
2023-04-19T04:54:48.340Z,11.21
2023-04-19T04:57:16.272Z,11.15
2023-04-19T04:59:44.404Z,10.95
2023-04-19T05:02:12.715Z,10.92
2023-04-19T05:04:40.678Z,10.94
2023-04-19T05:07:09.976Z,9.04
2023-04-19T05:09:37.750Z,10.74
2023-04-19T05:12:06.409Z,10.73
2023-04-19T05:14:34.123Z,10.81
2023-04-19T05:17:02.267Z,10.72
2023-04-19T05:19:32.379Z,10.31
2023-04-19T05:22:06.072Z,10.30
2023-04-19T05:24:40.100Z,10.35
2023-04-19T05:27:10.630Z,10.46
2023-04-19T05:29:41.539Z,10.20
2023-04-19T05:32:09.748Z,10.73
2023-04-19T05:34:38.892Z,10.15
2023-04-19T05:37:07.425Z,10.77
2023-04-19T05:39:40.213Z,10.92
2023-04-19T05:42:15.456Z,10.96
2023-04-19T05:44:48.207Z,10.77
2023-04-19T05:47:17.891Z,10.96
2023-04-19T05:49:48.233Z,10.97
2023-04-19T05:52:17.926Z,11.21
2023-04-19T05:54:47.855Z,11.23
2023-04-19T05:57:16.775Z,11.23
2023-04-19T05:59:47.497Z,11.25
2023-04-19T06:02:15.934Z,11.33
2023-04-19T06:04:45.209Z,11.47
2023-04-19T06:07:31.090Z,11.45
2023-04-19T06:10:03.271Z,11.05
2023-04-19T06:12:37.794Z,10.97
2023-04-19T06:15:14.106Z,10.53
2023-04-19T06:17:43.830Z,11.17
2023-04-19T06:20:16.002Z,11.51
2023-04-19T06:22:47.826Z,11.37
2023-04-19T06:25:17.935Z,11.38
2023-04-19T06:27:49.098Z,11.01
2023-04-19T06:30:17.971Z,11.39
2023-04-19T06:32:48.066Z,11.47
2023-04-19T06:35:17.832Z,11.22
2023-04-19T06:37:46.130Z,11.52
2023-04-19T06:40:14.466Z,11.48
2023-04-19T06:42:43.923Z,11.76
2023-04-19T06:45:13.097Z,11.94
2023-04-19T06:47:47.786Z,11.89
2023-04-19T06:50:15.863Z,11.96
2023-04-19T06:52:43.718Z,12.03
2023-04-19T06:55:11.813Z,12.11
2023-04-19T06:57:39.690Z,11.69
2023-04-19T07:00:11.595Z,11.65
2023-04-19T07:02:43.749Z,11.75
2023-04-19T07:05:13.990Z,11.38
2023-04-19T07:07:47.360Z,11.15
2023-04-19T07:10:16.414Z,11.25
2023-04-19T07:12:45.081Z,11.50
2023-04-19T07:15:19.209Z,11.67
2023-04-19T07:17:48.337Z,11.39
2023-04-19T07:20:17.732Z,11.40
2023-04-19T07:22:49.256Z,11.71
2023-04-19T07:25:22.358Z,11.29
2023-04-19T07:27:57.990Z,11.65
2023-04-19T07:30:30.469Z,11.97
2023-04-19T07:33:04.543Z,12.34
2023-04-19T07:35:33.703Z,12.45
2023-04-19T07:38:06.139Z,12.32
2023-04-19T07:40:34.736Z,12.20
2023-04-19T07:43:03.715Z,12.24
2023-04-19T07:45:33.871Z,12.26
2023-04-19T07:48:02.593Z,12.47
2023-04-19T07:50:44.070Z,12.25
2023-04-19T07:53:20.279Z,11.89
2023-04-19T07:55:48.099Z,12.02
2023-04-19T07:58:16.113Z,11.03
2023-04-19T08:00:49.322Z,12.67
2023-04-19T08:03:23.669Z,12.21
2023-04-19T08:05:52.427Z,11.79
2023-04-19T08:08:22.138Z,11.92
2023-04-19T08:10:51.551Z,12.14
2023-04-19T08:13:20.050Z,12.74
2023-04-19T08:16:27.942Z,12.79
2023-04-19T08:18:41.942Z,12.89
2023-04-19T08:21:09.911Z,12.92
2023-04-19T08:23:47.922Z,12.66
2023-04-19T08:26:19.569Z,12.66
2023-04-19T08:28:47.992Z,12.38
2023-04-19T08:31:22.431Z,12.48
2023-04-19T08:33:51.940Z,12.79
2023-04-19T08:36:28.698Z,12.77
2023-04-19T08:39:14.641Z,12.79
2023-04-19T08:41:48.107Z,12.89
2023-04-19T08:44:32.542Z,12.60
2023-04-19T08:47:07.230Z,12.38
2023-04-19T08:49:36.938Z,12.37
2023-04-19T08:52:05.491Z,12.59
2023-04-19T08:54:34.193Z,12.95
2023-04-19T08:57:09.088Z,12.88
2023-04-19T08:59:40.523Z,12.70
2023-04-19T09:02:10.378Z,13.26
2023-04-19T09:08:24.583Z,12.76
2023-04-19T09:10:56.715Z,13.00
2023-04-19T09:13:25.462Z,12.33
2023-04-19T09:15:57.590Z,12.51
2023-04-19T09:18:32.261Z,12.97
2023-04-19T09:21:02.979Z,12.78
2023-04-19T09:23:36.653Z,12.71
2023-04-19T09:26:23.015Z,12.96
2023-04-19T09:28:58.185Z,12.47
2023-04-19T09:31:47.948Z,12.58
2023-04-19T09:34:23.315Z,12.93
2023-04-19T09:37:00.527Z,12.83
2023-04-19T09:39:36.155Z,13.00
2023-04-19T09:42:04.237Z,13.06
2023-04-19T09:45:12.615Z,14.10
2023-04-19T09:47:31.631Z,13.77
2023-04-19T09:50:21.833Z,13.71
2023-04-19T09:52:56.367Z,14.40
2023-04-19T09:55:27.663Z,14.39
2023-04-19T09:57:57.709Z,15.04
2023-04-19T10:00:31.562Z,14.75
2023-04-19T10:03:06.955Z,14.73
2023-04-19T10:05:40.744Z,14.68
2023-04-19T10:08:11.188Z,14.19
2023-04-19T10:10:42.939Z,14.18
2023-04-19T10:15:53.599Z,12.99
2023-04-19T10:18:27.931Z,12.92
2023-04-19T10:21:01.478Z,13.29
2023-04-19T10:23:34.083Z,13.52
2023-04-19T10:26:03.088Z,11.98
2023-04-19T10:28:38.312Z,13.89
2023-04-19T10:31:09.605Z,14.31
2023-04-19T10:33:39.499Z,13.82
2023-04-19T10:36:13.941Z,14.52
2023-04-19T10:38:52.675Z,14.34
2023-04-19T10:41:21.814Z,13.64
2023-04-19T10:44:10.029Z,13.74
2023-04-19T10:46:40.463Z,13.77
2023-04-19T10:49:09.857Z,14.09
2023-04-19T10:51:43.299Z,13.80
2023-04-19T10:54:13.572Z,13.91
2023-04-19T10:57:13.749Z,13.76
2023-04-19T10:59:44.268Z,13.51
2023-04-19T11:02:32.568Z,13.71
2023-04-19T11:05:07.396Z,13.85
2023-04-19T11:07:59.013Z,13.60
2023-04-19T11:10:32.740Z,13.40
2023-04-19T11:13:01.562Z,13.55
2023-04-19T11:15:32.758Z,13.23
2023-04-19T11:18:12.001Z,13.45
2023-04-19T11:20:44.548Z,13.59
2023-04-19T11:23:20.750Z,13.46
2023-04-19T11:25:53.050Z,13.02
2023-04-19T11:28:26.764Z,12.11
2023-04-19T11:30:56.111Z,12.25
2023-04-19T11:33:26.883Z,12.37
2023-04-19T11:35:57.413Z,12.51
2023-04-19T11:38:31.776Z,12.24
2023-04-19T11:41:01.824Z,12.41
2023-04-19T11:43:42.091Z,12.19
2023-04-19T11:49:05.015Z,12.43
2023-04-19T11:51:33.371Z,12.79
2023-04-19T11:54:05.098Z,12.81
2023-04-19T11:56:33.888Z,12.23
2023-04-19T11:59:06.167Z,12.39
2023-04-19T12:01:40.775Z,12.41
2023-04-19T12:04:09.191Z,11.90
2023-04-19T12:06:37.877Z,11.64
2023-04-19T12:09:09.643Z,11.91
2023-04-19T12:11:47.420Z,11.73
2023-04-19T12:14:22.799Z,11.92
2023-04-19T12:17:07.801Z,12.00
2023-04-19T12:19:45.711Z,12.14
2023-04-19T12:22:15.940Z,11.81
2023-04-19T12:24:45.929Z,12.07
2023-04-19T12:27:25.763Z,12.17
2023-04-19T12:29:57.263Z,12.27
2023-04-19T12:32:31.805Z,12.21
2023-04-19T12:35:00.161Z,12.15
2023-04-19T12:37:33.506Z,12.03
2023-04-19T12:40:04.989Z,11.92
2023-04-19T12:42:33.560Z,11.66
2023-04-19T12:45:01.866Z,11.19
2023-04-19T12:47:34.300Z,10.77
2023-04-19T12:50:07.714Z,10.91
2023-04-19T12:52:36.829Z,10.96
2023-04-19T12:55:11.268Z,10.62
2023-04-19T12:57:40.445Z,10.55
2023-04-19T13:00:10.751Z,10.34
2023-04-19T13:02:42.290Z,10.30
2023-04-19T13:05:25.406Z,10.51
2023-04-19T13:07:53.667Z,10.62
2023-04-19T13:10:25.400Z,10.92
2023-04-19T13:13:00.374Z,11.19
2023-04-19T13:15:29.798Z,11.29
2023-04-19T13:17:58.338Z,11.53
2023-04-19T13:20:29.652Z,11.64
2023-04-19T13:22:59.920Z,11.68
2023-04-19T13:25:30.688Z,11.20
2023-04-19T13:28:02.652Z,11.65
2023-04-19T13:30:35.248Z,11.76
2023-04-19T13:33:03.801Z,11.52
2023-04-19T13:35:32.412Z,11.67
2023-04-19T13:38:01.025Z,11.70
2023-04-19T13:40:31.382Z,11.74
2023-04-19T13:42:59.742Z,11.87
2023-04-19T13:45:28.235Z,11.91
2023-04-19T13:47:56.734Z,11.90
2023-04-19T13:50:25.285Z,11.82
2023-04-19T13:52:55.476Z,12.04
2023-04-19T13:55:28.203Z,12.01
2023-04-19T13:58:03.021Z,12.26
2023-04-19T14:00:31.672Z,12.44
2023-04-19T14:03:00.414Z,12.31
2023-04-19T14:05:29.172Z,12.53
2023-04-19T14:07:57.915Z,12.53
2023-04-19T14:10:27.140Z,12.49
2023-04-19T14:12:55.742Z,12.72
2023-04-19T14:15:25.939Z,12.81
2023-04-19T14:17:56.897Z,12.97
2023-04-19T14:20:24.818Z,12.54
2023-04-19T14:22:55.140Z,13.33
2023-04-19T14:25:24.064Z,13.13
2023-04-19T14:27:52.294Z,12.91
2023-04-19T14:30:21.687Z,13.30
2023-04-19T14:32:52.376Z,11.71
2023-04-19T14:35:20.368Z,13.52
2023-04-19T14:37:48.774Z,13.45
2023-04-19T14:40:18.876Z,13.12
2023-04-19T14:42:46.962Z,13.42
2023-04-19T14:45:14.923Z,13.39
2023-04-19T14:47:42.778Z,13.73
2023-04-19T14:50:12.504Z,13.95
2023-04-19T14:52:42.542Z,13.89
2023-04-19T14:55:14.589Z,14.10
2023-04-19T14:57:42.581Z,14.18
2023-04-19T15:00:11.725Z,14.09
2023-04-19T15:02:42.523Z,14.21
2023-04-19T15:05:15.899Z,14.17
2023-04-19T15:07:44.065Z,14.27
2023-04-19T15:10:16.913Z,14.03
2023-04-19T15:12:47.205Z,13.95
2023-04-19T15:15:21.061Z,14.07
2023-04-19T15:17:58.770Z,13.94
2023-04-19T15:20:35.435Z,13.97
2023-04-19T15:23:09.601Z,14.16
2023-04-19T15:25:49.886Z,14.01
2023-04-19T15:28:17.723Z,14.29
2023-04-19T15:30:49.474Z,14.69
2023-04-19T15:33:17.420Z,14.92
2023-04-19T15:35:55.126Z,14.96
2023-04-19T15:38:24.233Z,14.76
2023-04-19T15:40:52.903Z,14.57
2023-04-19T15:43:24.881Z,14.27
2023-04-19T15:45:53.686Z,13.97
2023-04-19T15:48:25.596Z,13.85
2023-04-19T15:50:59.137Z,14.57
2023-04-19T15:53:29.701Z,14.68
2023-04-19T15:55:59.880Z,14.77
2023-04-19T15:58:27.779Z,14.63
2023-04-19T16:00:55.813Z,14.45
2023-04-19T16:03:24.214Z,14.05
2023-04-19T16:06:01.858Z,14.63
2023-04-19T16:08:33.181Z,14.89
2023-04-19T16:11:03.856Z,14.83
2023-04-19T16:13:32.955Z,15.14
2023-04-19T16:16:03.021Z,15.43
2023-04-19T16:18:31.325Z,15.32
2023-04-19T16:21:01.902Z,15.39
2023-04-19T16:23:29.932Z,15.12
2023-04-19T16:26:08.418Z,14.83
2023-04-19T16:28:36.665Z,14.81
2023-04-19T16:31:04.942Z,14.11
2023-04-19T16:33:41.523Z,14.13
2023-04-19T16:36:14.594Z,14.06
2023-04-19T16:38:42.693Z,14.16
2023-04-19T16:41:12.544Z,14.18
2023-04-19T16:43:46.103Z,14.26
2023-04-19T16:46:16.343Z,14.26
2023-04-19T16:48:47.369Z,14.08
2023-04-19T16:51:24.127Z,14.16
2023-04-19T16:53:53.116Z,13.73
2023-04-19T16:56:22.252Z,14.24
2023-04-19T16:58:51.692Z,14.20
2023-04-19T17:01:28.281Z,13.88
2023-04-19T17:04:14.106Z,14.18
2023-04-19T17:06:48.622Z,13.90
2023-04-19T17:09:25.980Z,13.89
2023-04-19T17:11:55.280Z,13.63
2023-04-19T17:14:23.143Z,13.58
2023-04-19T17:16:52.181Z,13.17
2023-04-19T17:19:22.977Z,12.87
2023-04-19T17:21:55.023Z,12.68
2023-04-19T17:24:23.577Z,12.85
2023-04-19T17:26:53.133Z,12.79
2023-04-19T17:29:22.829Z,12.45
2023-04-19T17:31:59.918Z,12.52
2023-04-19T17:34:30.844Z,12.28
2023-04-19T17:37:03.603Z,12.40
2023-04-19T17:39:31.654Z,12.22
2023-04-19T17:42:03.840Z,12.44
2023-04-19T17:44:31.723Z,12.58
2023-04-19T17:47:00.190Z,12.34
2023-04-19T17:49:28.632Z,12.35
2023-04-19T17:51:58.808Z,12.38
2023-04-19T17:54:34.290Z,12.42
2023-04-19T17:57:03.707Z,12.26
2023-04-19T17:59:33.619Z,11.94
2023-04-19T18:02:02.532Z,11.62
2023-04-19T18:04:34.216Z,11.58
2023-04-19T18:07:04.803Z,11.42
2023-04-19T18:09:42.708Z,11.50
2023-04-19T18:12:11.170Z,11.50
2023-04-19T18:14:39.602Z,11.19
2023-04-19T18:17:08.037Z,10.98
2023-04-19T18:19:37.576Z,11.07
2023-04-19T18:22:05.337Z,11.26
2023-04-19T18:24:38.371Z,11.15
2023-04-19T18:27:06.272Z,11.03
2023-04-19T18:29:37.259Z,11.06
2023-04-19T18:32:05.771Z,11.16
2023-04-19T18:34:38.278Z,10.97
2023-04-19T18:37:29.791Z,10.70
2023-04-19T18:40:02.396Z,10.61
2023-04-19T18:42:35.732Z,10.77
2023-04-19T18:45:06.918Z,9.17
2023-04-19T18:47:38.304Z,10.63
2023-04-19T18:50:08.684Z,10.66
2023-04-19T18:52:38.232Z,10.48
2023-04-19T18:55:09.416Z,10.66
2023-04-19T18:57:38.819Z,10.41
2023-04-19T19:00:11.136Z,9.15
2023-04-19T19:02:43.649Z,10.49
2023-04-19T19:05:14.061Z,10.51
2023-04-19T19:07:45.550Z,9.94
2023-04-19T19:10:22.451Z,10.05
2023-04-19T19:12:54.879Z,9.98
2023-04-19T19:15:26.144Z,10.04
2023-04-19T19:17:54.690Z,10.19
2023-04-19T19:20:25.221Z,10.10
2023-04-19T19:22:54.687Z,10.22
2023-04-19T19:25:26.420Z,10.15
2023-04-19T19:28:07.052Z,10.31
2023-04-19T19:30:40.283Z,9.99
2023-04-19T19:33:08.569Z,9.89
2023-04-19T19:35:39.638Z,10.06
2023-04-19T19:38:08.236Z,10.09
2023-04-19T19:40:53.541Z,10.30
2023-04-19T19:43:27.215Z,10.48
2023-04-19T19:46:00.634Z,10.44
2023-04-19T19:48:30.233Z,10.34
2023-04-19T19:51:29.109Z,10.28
2023-04-19T19:53:52.632Z,10.48
2023-04-19T19:56:23.975Z,10.79
2023-04-19T19:58:52.423Z,10.85
2023-04-19T20:01:22.581Z,11.15
2023-04-19T20:03:55.175Z,11.25
2023-04-19T20:09:00.197Z,11.00
2023-04-19T20:11:33.895Z,10.76
2023-04-19T20:14:05.122Z,10.50
2023-04-19T20:16:35.777Z,10.21
2023-04-19T20:19:12.719Z,10.24
2023-04-19T20:21:40.704Z,10.20
2023-04-19T20:24:09.786Z,10.30
2023-04-19T20:26:40.885Z,10.45
2023-04-19T20:29:11.636Z,10.49
2023-04-19T20:31:40.481Z,10.37
2023-04-19T20:34:10.647Z,10.38
2023-04-19T20:36:46.686Z,10.65
2023-04-19T20:39:16.564Z,10.89
2023-04-19T20:41:51.372Z,11.02
2023-04-19T20:44:21.417Z,10.83
2023-04-19T20:49:33.000Z,10.83
2023-04-19T20:52:01.431Z,10.96
2023-04-19T20:54:30.235Z,10.87
2023-04-19T20:57:06.097Z,11.00
2023-04-19T20:59:37.215Z,10.73
2023-04-19T21:02:05.139Z,10.74
2023-04-19T21:04:33.798Z,10.75
2023-04-19T21:07:04.251Z,10.84
2023-04-19T21:09:41.844Z,10.90
2023-04-19T21:12:15.906Z,10.84
2023-04-19T21:14:46.534Z,10.75
2023-04-19T21:17:17.322Z,10.80
2023-04-19T21:19:48.610Z,10.72
2023-04-19T21:22:21.740Z,10.05
2023-04-19T21:24:52.475Z,10.26
2023-04-19T21:27:21.785Z,9.93
2023-04-19T21:29:52.436Z,9.89
2023-04-19T21:32:22.979Z,9.83
2023-04-19T21:34:51.538Z,9.63
2023-04-19T21:37:21.172Z,9.43
2023-04-19T21:39:49.612Z,9.05
2023-04-19T21:42:18.786Z,9.12
2023-04-19T21:44:53.790Z,8.99
2023-04-19T21:47:22.100Z,8.94
2023-04-19T21:49:51.357Z,8.93
2023-04-19T21:52:23.164Z,8.79
2023-04-19T21:54:51.226Z,8.77
2023-04-19T21:57:22.254Z,6.97
2023-04-19T21:59:53.124Z,8.61
2023-04-19T22:02:22.467Z,8.80
2023-04-19T22:04:50.953Z,8.68
2023-04-19T22:07:20.722Z,8.71
2023-04-19T22:09:54.726Z,8.40
2023-04-19T22:12:23.737Z,8.25
2023-04-19T22:14:53.554Z,8.40
2023-04-19T22:17:24.445Z,8.67
2023-04-19T22:19:54.597Z,8.52
2023-04-19T22:22:22.518Z,8.72
2023-04-19T22:24:57.014Z,8.74
2023-04-19T22:27:27.013Z,8.86
2023-04-19T22:29:59.065Z,8.98
2023-04-19T22:32:27.586Z,9.10
2023-04-19T22:35:01.707Z,9.20
2023-04-19T22:37:32.363Z,9.49
2023-04-19T22:40:07.380Z,9.56
2023-04-19T22:42:37.753Z,9.53
2023-04-19T22:45:15.417Z,9.18
2023-04-19T22:47:44.286Z,8.73
2023-04-19T22:50:15.336Z,9.02
2023-04-19T22:52:52.401Z,8.82
2023-04-19T22:55:24.047Z,8.36
2023-04-19T22:57:51.760Z,8.70
2023-04-19T23:00:23.748Z,8.66
2023-04-19T23:02:59.043Z,8.80
2023-04-19T23:05:35.976Z,8.75
2023-04-19T23:08:04.522Z,8.50
2023-04-19T23:10:33.301Z,8.40
2023-04-19T23:13:03.824Z,8.46
2023-04-19T23:15:35.254Z,8.48
2023-04-19T23:18:03.713Z,8.64
2023-04-19T23:20:32.162Z,8.35
2023-04-19T23:23:00.264Z,8.43
2023-04-19T23:25:30.353Z,7.91
2023-04-19T23:28:05.757Z,8.43
2023-04-19T23:30:41.465Z,8.54
2023-04-19T23:33:09.315Z,8.53
2023-04-19T23:35:40.737Z,8.66
2023-04-19T23:38:08.923Z,8.75
2023-04-19T23:40:36.710Z,8.70
2023-04-19T23:43:07.257Z,8.90
2023-04-19T23:45:36.763Z,8.94
2023-04-19T23:48:07.435Z,8.58
2023-04-19T23:50:37.697Z,9.07
2023-04-19T23:53:08.242Z,9.11
2023-04-19T23:55:36.297Z,9.11
2023-04-19T23:58:08.253Z,9.39
